Time;durP1;ratioP1;P1;durP2;ratioP2;P2;SDS_P1;SDS_P2;PMS_P1;PMS_P2;Temp;Humidity;BMP_temperature;BMP_pressure;BME280_temperature;BME280_humidity;BME280_pressure;Samples;Min_cycle;Max_cycle;Signal;HPM_P1;HPM_P2
2021/05/30 00:02:02;;;;;;;;;;;;;;;16.84;39.79;102270.09;5073403;27;98561;-92
2021/05/30 00:04:31;;;;;;;;;;;;;;;16.01;41.13;102274.84;5078094;27;96163;-87
2021/05/30 00:09:39;;;;;;;;;;;;;;;17.11;39.46;102271.72;5079134;27;99014;-91
2021/05/30 00:12:07;;;;;;;;;;;;;;;16.93;40.12;102272.44;5065914;27;99785;-92
2021/05/30 00:14:36;;;;;;;;;;;;;;;16.88;39.92;102269.94;5080078;27;95946;-90
2021/05/30 00:17:03;;;;;;;;;;;;;;;16.65;40.45;102265.47;5076687;27;96720;-91
2021/05/30 00:19:30;;;;;;;;;;;;;;;16.34;41.53;102262.13;5069725;27;99746;-90
2021/05/30 00:21:56;;;;;;;;;;;;;;;16.81;41.03;102263.06;5070041;27;99989;-91
2021/05/30 00:24:22;;;;;;;;;;;;;;;16.54;41.50;102259.59;5074078;27;96724;-90
2021/05/30 00:26:48;;;;;;;;;;;;;;;16.70;41.63;102267.94;5074691;27;96041;-92
2021/05/30 00:29:15;;;;;;;;;;;;;;;16.53;41.98;102265.88;5081083;27;100218;-90
2021/05/30 00:31:41;;;;;;;;;;;;;;;16.67;41.75;102271.59;5070571;27;98992;-89
2021/05/30 00:34:08;;;;;;;;;;;;;;;16.68;41.72;102262.66;5051156;27;96626;-85
2021/05/30 00:36:36;;;;;;;;;;;;;;;16.06;42.47;102274.69;5057873;27;96775;-84
2021/05/30 00:39:02;;;;;;;;;;;;;;;16.34;42.52;102273.63;5057035;27;97616;-91
2021/05/30 00:41:27;;;;;;;;;;;;;;;16.39;42.04;102270.84;5049459;27;101224;-90
2021/05/30 00:43:55;;;;;;;;;;;;;;;16.20;42.11;102272.41;5069942;27;96988;-90
2021/05/30 00:46:24;;;;;;;;;;;;;;;16.50;41.61;102268.66;5076680;27;97102;-89
2021/05/30 00:48:50;;;;;;;;;;;;;;;15.72;42.90;102266.94;5078846;27;99983;-90
2021/05/30 00:51:17;;;;;;;;;;;;;;;16.12;42.38;102267.34;5074907;27;99970;-90
2021/05/30 00:53:50;;;;;;;;;;;;;;;16.50;42.26;102265.09;5070463;27;96667;-86
2021/05/30 00:56:16;;;;;;;;;;;;;;;16.34;42.03;102260.31;5071867;27;96774;-90
2021/05/30 00:58:42;;;;;;;;;;;;;;;16.06;42.74;102262.22;5068031;27;99046;-89
2021/05/30 01:01:08;;;;;;;;;;;;;;;15.97;43.59;102270.50;5090389;27;99679;-90
2021/05/30 01:06:15;;;;;;;;;;;;;;;15.94;43.86;102257.31;5071554;27;96836;-91
2021/05/30 01:08:42;;;;;;;;;;;;;;;15.95;43.77;102265.22;5068430;27;99136;-89
2021/05/30 01:11:17;;;;;;;;;;;;;;;16.22;43.02;102258.06;5081332;27;99290;-90
2021/05/30 01:13:46;;;;;;;;;;;;;;;16.46;42.92;102268.81;5081616;27;95905;-90
2021/05/30 01:16:13;;;;;;;;;;;;;;;16.23;43.62;102264.28;5077944;27;96523;-90
2021/05/30 01:21:20;;;;;;;;;;;;;;;16.00;44.42;102262.44;5073000;27;98571;-90
2021/05/30 01:26:42;;;;;;;;;;;;;;;16.04;44.43;102258.72;5061017;27;96654;-91
2021/05/30 01:29:10;;;;;;;;;;;;;;;16.09;44.66;102258.56;5057133;27;99344;-92
2021/05/30 01:31:38;;;;;;;;;;;;;;;15.95;44.73;102259.91;5061833;27;101584;-93
2021/05/30 01:34:04;;;;;;;;;;;;;;;16.27;44.18;102263.28;5078563;27;96643;-92
2021/05/30 01:36:31;;;;;;;;;;;;;;;15.99;44.75;102268.69;5072573;27;96469;-90
2021/05/30 01:39:05;;;;;;;;;;;;;;;16.23;44.12;102265.16;5076410;27;99628;-93
2021/05/30 01:41:32;;;;;;;;;;;;;;;16.07;44.45;102263.97;5079081;27;100788;-91
2021/05/30 01:44:05;;;;;;;;;;;;;;;15.88;44.27;102262.84;5073920;27;95930;-91
2021/05/30 01:49:14;;;;;;;;;;;;;;;16.34;43.74;102262.13;5099261;27;99056;-92
2021/05/30 01:51:41;;;;;;;;;;;;;;;16.03;43.90;102256.09;5079221;27;99762;-93
2021/05/30 01:54:20;;;;;;;;;;;;;;;15.99;44.04;102263.34;5086548;27;97738;-93
2021/05/30 01:56:57;;;;;;;;;;;;;;;16.09;43.88;102266.56;5080834;27;96893;-89
2021/05/30 01:59:25;;;;;;;;;;;;;;;15.86;44.12;102268.22;5081507;27;99976;-91
2021/05/30 02:01:55;;;;;;;;;;;;;;;15.92;43.68;102267.13;5074743;27;99464;-90
2021/05/30 02:04:24;;;;;;;;;;;;;;;15.99;43.36;102271.34;5051800;27;95929;-91
2021/05/30 02:06:51;;;;;;;;;;;;;;;16.33;42.85;102266.59;5060535;27;96594;-92
2021/05/30 02:09:19;;;;;;;;;;;;;;;15.81;43.75;102271.97;5053754;27;99457;-91
2021/05/30 02:11:49;;;;;;;;;;;;;;;16.12;42.92;102283.34;5067509;27;99034;-92
2021/05/30 02:19:52;;;;;;;;;;;;;;;15.83;43.18;102286.97;5077894;27;97197;-91
2021/05/30 02:22:19;;;;;;;;;;;;;;;15.90;42.13;102288.50;5078469;27;98415;-87
2021/05/30 02:24:47;;;;;;;;;;;;;;;16.00;42.84;102282.88;5079749;27;95934;-91
2021/05/30 02:27:16;;;;;;;;;;;;;;;15.88;42.39;102278.84;5062984;27;96855;-91
2021/05/30 02:29:44;;;;;;;;;;;;;;;15.69;42.66;102291.00;5079677;27;97885;-89
2021/05/30 02:34:52;;;;;;;;;;;;;;;15.65;43.10;102292.03;5075493;27;96487;-91
2021/05/30 02:37:20;;;;;;;;;;;;;;;15.54;43.66;102285.25;5068704;27;96588;-91
2021/05/30 02:39:48;;;;;;;;;;;;;;;15.79;43.25;102289.78;5072037;27;100302;-91
2021/05/30 02:42:15;;;;;;;;;;;;;;;15.90;43.51;102292.97;5066815;27;98867;-91
2021/05/30 02:44:42;;;;;;;;;;;;;;;15.61;42.96;102291.28;5061072;27;96959;-91
2021/05/30 02:49:49;;;;;;;;;;;;;;;15.79;42.82;102290.66;5069337;27;98941;-91
2021/05/30 02:52:17;;;;;;;;;;;;;;;15.65;43.29;102292.03;5047875;27;97801;-92
2021/05/30 02:54:43;;;;;;;;;;;;;;;15.64;43.47;102295.59;5073595;27;96765;-90
2021/05/30 02:57:10;;;;;;;;;;;;;;;15.59;43.42;102287.78;5056327;27;96654;-92
2021/05/30 02:59:36;;;;;;;;;;;;;;;15.43;43.84;102286.47;5063448;27;99343;-91
2021/05/30 03:02:02;;;;;;;;;;;;;;;15.66;44.00;102294.66;5065315;27;99877;-91
2021/05/30 03:04:29;;;;;;;;;;;;;;;15.66;43.77;102291.09;5070940;27;96504;-92
2021/05/30 03:06:56;;;;;;;;;;;;;;;15.56;43.21;102289.69;5069087;27;96953;-91
2021/05/30 03:09:24;;;;;;;;;;;;;;;15.66;42.93;102289.31;5070105;27;99682;-91
2021/05/30 03:11:58;;;;;;;;;;;;;;;14.97;43.57;102293.19;5074440;27;99864;-92
2021/05/30 03:14:26;;;;;;;;;;;;;;;15.18;43.34;102294.34;5065615;27;97078;-92
2021/05/30 03:16:53;;;;;;;;;;;;;;;15.20;43.14;102292.50;5062619;27;97577;-92
2021/05/30 03:19:21;;;;;;;;;;;;;;;15.11;43.27;102300.75;5062338;27;96691;-92
2021/05/30 03:21:48;;;;;;;;;;;;;;;15.00;43.83;102290.44;5057357;27;99490;-92
2021/05/30 03:24:19;;;;;;;;;;;;;;;14.62;43.68;102302.19;5073382;27;96653;-91
2021/05/30 03:26:46;;;;;;;;;;;;;;;14.63;43.57;102303.94;5071999;27;96723;-92
2021/05/30 03:29:12;;;;;;;;;;;;;;;14.72;43.57;102300.13;5079242;27;98257;-92
2021/05/30 03:31:41;;;;;;;;;;;;;;;14.58;43.02;102303.16;5082987;27;97651;-92
2021/05/30 03:34:07;;;;;;;;;;;;;;;14.70;42.15;102305.50;5073909;27;96891;-91
2021/05/30 03:36:35;;;;;;;;;;;;;;;14.87;41.78;102298.84;5096447;27;96326;-91
2021/05/30 03:39:03;;;;;;;;;;;;;;;14.63;41.98;102295.97;5073185;27;99463;-90
2021/05/30 03:41:33;;;;;;;;;;;;;;;14.44;42.56;102300.00;5080856;27;99807;-92
2021/05/30 03:44:00;;;;;;;;;;;;;;;14.85;41.72;102301.53;5083000;27;95964;-91
2021/05/30 03:46:27;;;;;;;;;;;;;;;14.93;41.43;102299.53;5075238;27;96590;-91
2021/05/30 03:48:53;;;;;;;;;;;;;;;15.45;40.22;102305.94;5058083;27;100186;-89
2021/05/30 03:51:19;;;;;;;;;;;;;;;15.62;40.03;102300.97;5082529;27;99491;-89
2021/05/30 03:53:45;;;;;;;;;;;;;;;15.71;39.06;102302.50;5077679;27;96143;-89
2021/05/30 03:56:11;;;;;;;;;;;;;;;15.93;38.55;102298.22;5075250;27;96682;-89
2021/05/30 03:58:38;;;;;;;;;;;;;;;15.92;38.28;102308.00;5097666;27;99330;-89
2021/05/30 04:01:05;;;;;;;;;;;;;;;16.08;37.71;102297.66;5067211;27;98800;-89
2021/05/30 04:03:31;;;;;;;;;;;;;;;16.31;38.15;102295.09;5063701;27;97828;-90
2021/05/30 04:05:57;;;;;;;;;;;;;;;16.18;37.26;102303.59;5065393;27;96697;-90
2021/05/30 04:08:23;;;;;;;;;;;;;;;16.50;37.40;102300.66;5049494;27;98880;-90
2021/05/30 04:10:50;;;;;;;;;;;;;;;16.51;37.35;102302.41;5062926;27;97790;-90
2021/05/30 04:13:16;;;;;;;;;;;;;;;16.47;37.01;102298.13;5067175;27;96745;-90
2021/05/30 04:15:42;;;;;;;;;;;;;;;16.86;36.34;102311.84;5065295;27;97130;-90
2021/05/30 04:18:10;;;;;;;;;;;;;;;16.86;35.74;102309.19;5065882;27;101333;-90
2021/05/30 04:20:37;;;;;;;;;;;;;;;16.22;35.95;102302.53;5067977;27;97679;-89
2021/05/30 04:23:04;;;;;;;;;;;;;;;16.44;36.07;102300.88;5055259;27;96831;-89
2021/05/30 04:25:30;;;;;;;;;;;;;;;16.54;35.81;102312.13;5061653;27;96634;-90
2021/05/30 04:30:41;;;;;;;;;;;;;;;16.41;36.14;102310.81;5066614;27;98750;-91
2021/05/30 04:33:09;;;;;;;;;;;;;;;16.67;35.63;102318.78;5066563;27;96883;-89
2021/05/30 04:35:38;;;;;;;;;;;;;;;16.74;35.70;102310.47;5072808;27;96584;-91
2021/05/30 04:38:05;;;;;;;;;;;;;;;17.05;35.54;102325.38;5061506;27;99931;-91
2021/05/30 04:40:31;;;;;;;;;;;;;;;17.12;35.41;102316.22;5068867;27;99335;-91
2021/05/30 04:42:58;;;;;;;;;;;;;;;16.52;36.42;102319.28;5069417;27;96504;-92
2021/05/30 04:45:26;;;;;;;;;;;;;;;16.57;36.58;102317.31;5088229;27;96547;-92
2021/05/30 04:47:52;;;;;;;;;;;;;;;16.64;36.63;102318.88;5075599;27;97101;-91
2021/05/30 04:50:20;;;;;;;;;;;;;;;16.76;36.53;102313.09;5068053;27;101299;-91
2021/05/30 04:52:47;;;;;;;;;;;;;;;17.29;36.22;102313.75;5071847;27;96559;-91
2021/05/30 04:55:13;;;;;;;;;;;;;;;17.47;35.30;102310.34;5081459;27;96445;-91
2021/05/30 04:57:40;;;;;;;;;;;;;;;18.42;33.57;102315.34;5082196;27;98342;-91
2021/05/30 05:00:07;;;;;;;;;;;;;;;23.10;26.59;102314.56;5084512;27;98821;-92
2021/05/30 05:02:33;;;;;;;;;;;;;;;22.02;27.20;102315.75;5062047;27;96536;-93
2021/05/30 05:04:59;;;;;;;;;;;;;;;21.26;29.28;102319.25;5062814;27;96932;-90
2021/05/30 05:07:25;;;;;;;;;;;;;;;20.57;29.79;102312.19;5063044;27;99984;-90
2021/05/30 05:09:53;;;;;;;;;;;;;;;22.64;27.06;102308.44;5063570;27;100258;-90
2021/05/30 05:12:20;;;;;;;;;;;;;;;23.34;25.35;102310.28;5064347;27;96925;-92
2021/05/30 05:14:47;;;;;;;;;;;;;;;21.39;27.84;102314.91;5059187;27;96837;-91
2021/05/30 05:17:13;;;;;;;;;;;;;;;21.35;28.32;102314.22;5062807;27;101611;-90
2021/05/30 05:19:39;;;;;;;;;;;;;;;20.08;30.50;102316.50;5064136;27;100538;-90
2021/05/30 05:22:05;;;;;;;;;;;;;;;19.69;31.06;102316.63;5064992;27;96714;-90
2021/05/30 05:24:31;;;;;;;;;;;;;;;19.26;31.89;102315.13;5061642;27;97083;-90
2021/05/30 05:26:58;;;;;;;;;;;;;;;19.03;32.20;102318.00;5060808;27;99751;-91
2021/05/30 05:29:24;;;;;;;;;;;;;;;18.46;33.22;102322.31;5047831;27;99203;-91
2021/05/30 05:31:51;;;;;;;;;;;;;;;18.33;33.61;102318.41;5051015;27;96811;-91
2021/05/30 05:34:17;;;;;;;;;;;;;;;17.70;34.58;102316.63;5064513;27;96846;-91
2021/05/30 05:36:43;;;;;;;;;;;;;;;17.67;34.83;102314.94;5055136;27;101486;-91
2021/05/30 05:39:09;;;;;;;;;;;;;;;17.71;34.96;102318.38;5063652;27;98927;-91
2021/05/30 05:41:35;;;;;;;;;;;;;;;18.61;33.62;102312.78;5068274;27;96598;-92
2021/05/30 05:44:02;;;;;;;;;;;;;;;18.74;33.40;102316.66;5055020;27;96741;-91
2021/05/30 05:46:28;;;;;;;;;;;;;;;18.76;33.04;102311.22;5060392;27;99048;-91
2021/05/30 05:48:54;;;;;;;;;;;;;;;18.11;33.65;102325.63;5070563;27;99514;-86
2021/05/30 05:51:20;;;;;;;;;;;;;;;18.75;33.05;102321.06;5074110;27;95839;-91
2021/05/30 05:59:08;;;;;;;;;;;;;;;18.27;33.39;102332.06;5073744;27;98463;-90
2021/05/30 06:01:34;;;;;;;;;;;;;;;18.64;32.87;102321.53;5067524;27;96599;-92
2021/05/30 06:04:00;;;;;;;;;;;;;;;18.34;33.13;102328.19;5069731;27;96952;-91
2021/05/30 06:06:26;;;;;;;;;;;;;;;17.96;33.41;102327.13;5068266;27;98290;-91
2021/05/30 06:08:54;;;;;;;;;;;;;;;18.72;32.88;102321.19;5072557;27;98036;-92
2021/05/30 06:11:20;;;;;;;;;;;;;;;18.62;32.46;102323.41;5072165;27;96631;-91
2021/05/30 06:13:46;;;;;;;;;;;;;;;18.84;31.91;102325.16;5075876;27;96685;-90
2021/05/30 06:16:17;;;;;;;;;;;;;;;18.68;32.43;102325.81;5081449;27;97656;-91
2021/05/30 06:18:46;;;;;;;;;;;;;;;18.41;32.52;102321.66;5078792;27;99279;-88
2021/05/30 06:21:15;;;;;;;;;;;;;;;19.01;31.80;102333.28;5081878;27;98413;-90
2021/05/30 06:23:45;;;;;;;;;;;;;;;19.58;31.18;102331.50;5082049;27;96697;-90
2021/05/30 06:26:11;;;;;;;;;;;;;;;19.96;30.29;102322.44;5077961;27;96295;-90
2021/05/30 06:28:38;;;;;;;;;;;;;;;19.16;30.48;102339.75;5076385;27;96263;-90
2021/05/30 06:31:06;;;;;;;;;;;;;;;18.75;31.71;102328.22;5081170;27;96328;-90
2021/05/30 06:33:34;;;;;;;;;;;;;;;19.42;30.65;102324.19;5070878;27;96643;-92
2021/05/30 06:35:59;;;;;;;;;;;;;;;18.78;31.42;102328.06;5060155;27;100368;-90
2021/05/30 06:38:30;;;;;;;;;;;;;;;19.79;29.72;102330.47;5074902;27;99131;-88
2021/05/30 06:40:56;;;;;;;;;;;;;;;19.70;30.17;102325.56;5078148;27;96379;-90
2021/05/30 06:43:22;;;;;;;;;;;;;;;20.50;28.88;102329.56;5082099;27;96349;-90
2021/05/30 06:45:48;;;;;;;;;;;;;;;20.29;29.22;102319.88;5083188;27;99383;-89
2021/05/30 06:48:15;;;;;;;;;;;;;;;20.16;29.33;102325.00;5081419;27;96549;-91
2021/05/30 06:50:41;;;;;;;;;;;;;;;21.21;27.84;102323.97;5070778;27;96726;-91
2021/05/30 06:53:08;;;;;;;;;;;;;;;21.74;26.51;102332.59;5070848;27;98389;-92
2021/05/30 06:55:34;;;;;;;;;;;;;;;21.16;26.98;102331.44;5068798;27;98747;-92
2021/05/30 06:58:01;;;;;;;;;;;;;;;22.02;26.15;102331.03;5072219;27;99948;-92
2021/05/30 07:00:29;;;;;;;;;;;;;;;22.86;25.06;102324.16;5068780;27;96737;-93
2021/05/30 07:08:34;;;;;;;;;;;;;;;21.95;25.88;102330.50;5067900;27;96333;-92
2021/05/30 07:11:03;;;;;;;;;;;;;;;21.50;26.34;102334.00;5084238;27;96994;-92
2021/05/30 07:13:33;;;;;;;;;;;;;;;21.00;27.05;102332.22;5075892;27;96531;-91
2021/05/30 07:21:27;;;;;;;;;;;;;;;22.08;26.12;102336.94;5073939;27;96787;-91
2021/05/30 07:23:55;;;;;;;;;;;;;;;21.53;25.55;102333.81;5068107;27;96999;-91
2021/05/30 07:26:27;;;;;;;;;;;;;;;20.39;26.80;102339.13;5073080;27;97744;-92
2021/05/30 07:29:04;;;;;;;;;;;;;;;20.61;27.02;102329.84;5082084;27;99984;-91
2021/05/30 07:31:31;;;;;;;;;;;;;;;20.87;26.86;102341.06;5065455;27;97022;-93
2021/05/30 07:33:57;;;;;;;;;;;;;;;21.16;26.93;102331.44;5061208;27;97382;-92
2021/05/30 07:39:16;;;;;;;;;;;;;;;21.06;26.62;102336.44;5070607;27;96661;-90
2021/05/30 07:41:43;;;;;;;;;;;;;;;21.82;26.45;102340.22;5061272;27;96928;-91
2021/05/30 07:44:15;;;;;;;;;;;;;;;21.97;25.15;102335.84;5059740;27;96683;-91
2021/05/30 07:46:41;;;;;;;;;;;;;;;22.43;25.11;102339.38;5062932;27;98600;-90
2021/05/30 07:49:08;;;;;;;;;;;;;;;22.79;25.03;102341.66;5060572;27;96831;-88
2021/05/30 07:51:35;;;;;;;;;;;;;;;22.34;25.29;102337.22;5064138;27;96880;-90
2021/05/30 07:54:00;;;;;;;;;;;;;;;22.31;25.36;102340.09;5059137;27;98608;-90
2021/05/30 07:56:26;;;;;;;;;;;;;;;22.18;25.56;102337.28;5066266;27;100777;-90
2021/05/30 07:58:58;;;;;;;;;;;;;;;22.70;24.94;102335.00;5067941;27;99255;-89
2021/05/30 08:01:23;;;;;;;;;;;;;;;23.36;23.95;102332.63;5074561;27;96199;-89
2021/05/30 08:03:49;;;;;;;;;;;;;;;23.34;23.84;102337.25;5063786;27;96696;-89
2021/05/30 08:06:16;;;;;;;;;;;;;;;21.87;24.70;102344.38;5074394;27;99364;-89
2021/05/30 08:08:42;;;;;;;;;;;;;;;21.03;25.72;102345.50;5068438;27;98646;-92
2021/05/30 08:11:11;;;;;;;;;;;;;;;21.50;25.67;102339.38;5084651;27;96640;-90
2021/05/30 08:13:38;;;;;;;;;;;;;;;21.72;25.20;102344.41;5071163;27;96777;-88
2021/05/30 08:16:06;;;;;;;;;;;;;;;21.32;25.83;102337.72;5073552;27;98911;-89
2021/05/30 08:21:30;;;;;;;;;;;;;;;22.04;26.28;102335.38;5074311;27;96438;-87
2021/05/30 08:26:38;;;;;;;;;;;;;;;22.83;24.78;102333.31;5063252;27;98517;-88
2021/05/30 08:29:04;;;;;;;;;;;;;;;22.59;24.51;102330.25;5059570;27;98864;-90
2021/05/30 08:31:32;;;;;;;;;;;;;;;22.04;25.09;102340.78;5076918;27;96573;-90
2021/05/30 08:34:03;;;;;;;;;;;;;;;21.13;25.91;102336.97;5069717;27;96907;-91
2021/05/30 08:36:34;;;;;;;;;;;;;;;21.94;25.23;102341.34;5069379;27;100507;-90
2021/05/30 08:39:01;;;;;;;;;;;;;;;22.42;24.49;102335.81;5069119;27;99264;-92
2021/05/30 08:41:27;;;;;;;;;;;;;;;21.18;25.65;102337.59;5063490;27;96594;-90
2021/05/30 08:43:53;;;;;;;;;;;;;;;22.06;25.34;102337.97;5076457;27;96115;-86
2021/05/30 08:49:09;;;;;;;;;;;;;;;22.64;24.20;102338.91;5065991;27;96629;-89
2021/05/30 08:51:37;;;;;;;;;;;;;;;22.15;24.19;102327.53;5075544;27;96767;-89
2021/05/30 08:59:28;;;;;;;;;;;;;;;22.48;23.99;102334.56;5073634;27;96706;-89
2021/05/30 09:02:01;;;;;;;;;;;;;;;22.41;24.42;102336.75;5071879;27;96611;-92
2021/05/30 09:16:06;;;;;;;;;;;;;;;22.98;23.56;102315.28;5081916;27;96850;-92
2021/05/30 09:18:42;;;;;;;;;;;;;;;22.35;24.17;102329.03;5072812;27;100196;-91
2021/05/30 09:21:09;;;;;;;;;;;;;;;22.82;23.88;102312.72;5090733;27;101638;-91
2021/05/30 09:23:43;;;;;;;;;;;;;;;21.77;25.03;102327.06;5087273;27;96572;-90
2021/05/30 09:26:13;;;;;;;;;;;;;;;21.53;25.22;102317.66;5084528;27;96875;-91
2021/05/30 09:28:40;;;;;;;;;;;;;;;22.48;24.52;102319.25;5059745;27;99466;-91
2021/05/30 09:31:07;;;;;;;;;;;;;;;22.46;24.30;102320.31;5058853;27;96990;-93
2021/05/30 09:33:33;;;;;;;;;;;;;;;22.52;24.50;102318.09;5071772;27;96633;-90
2021/05/30 09:36:14;;;;;;;;;;;;;;;23.08;23.63;102316.47;5073068;27;96585;-91
2021/05/30 09:38:46;;;;;;;;;;;;;;;22.26;23.98;102330.44;5072332;27;100457;-90
2021/05/30 09:46:32;;;;;;;;;;;;;;;22.35;23.37;102322.78;5063777;22;96768;-88
2021/05/30 09:51:43;;;;;;;;;;;;;;;22.60;23.68;102323.03;5033345;27;96563;-89
2021/05/30 09:54:13;;;;;;;;;;;;;;;22.33;23.68;102328.25;5039487;27;96683;-89
2021/05/30 09:56:41;;;;;;;;;;;;;;;22.42;23.85;102324.16;5039712;27;96056;-89
2021/05/30 09:59:12;;;;;;;;;;;;;;;22.25;23.72;102320.63;5039148;27;99286;-90
2021/05/30 10:01:57;;;;;;;;;;;;;;;22.74;23.48;102314.13;5033665;27;98879;-89
2021/05/30 10:04:34;;;;;;;;;;;;;;;21.77;24.47;102332.44;5019851;28;96007;-90
2021/05/30 10:07:10;;;;;;;;;;;;;;;21.46;25.02;102316.31;5029910;27;96699;-87
2021/05/30 10:09:45;;;;;;;;;;;;;;;21.54;24.94;102327.47;5028509;27;99542;-89
2021/05/30 10:12:11;;;;;;;;;;;;;;;22.37;24.10;102315.50;5026296;27;99336;-89
2021/05/30 10:14:41;;;;;;;;;;;;;;;21.94;24.62;102323.38;5016568;27;96618;-91
2021/05/30 10:20:08;;;;;;;;;;;;;;;21.33;25.38;102310.72;5285806;22;99882;-91
2021/05/30 10:22:35;;;;;;;;;;;;;;;22.54;24.69;102301.84;5021214;28;98507;-90
2021/05/30 10:25:03;;;;;;;;;;;;;;;22.54;24.04;102313.50;5015979;28;96512;-89
2021/05/30 10:27:40;;;;;;;;;;;;;;;21.38;25.53;102318.56;5015956;28;96524;-89
2021/05/30 10:32:39;;;;;;;;;;;;;;;21.90;25.22;102316.44;5411450;22;100617;-89
2021/05/30 10:35:09;;;;;;;;;;;;;;;22.02;25.23;102312.19;5048841;27;96381;-90
2021/05/30 10:37:40;;;;;;;;;;;;;;;21.78;25.42;102307.28;5058981;27;96670;-88
2021/05/30 10:48:13;;;;;;;;;;;;;;;23.37;24.02;102293.00;5072941;27;98496;-91
2021/05/30 10:53:32;;;;;;;;;;;;;;;22.96;24.60;102298.38;5065025;27;96810;-89
2021/05/30 10:56:18;;;;;;;;;;;;;;;23.72;24.00;102288.91;5058706;27;96658;-90
2021/05/30 10:58:47;;;;;;;;;;;;;;;23.21;24.91;102278.78;5053969;27;96779;-91
2021/05/30 11:01:39;;;;;;;;;;;;;;;23.68;23.99;102281.13;5041904;27;98358;-92
2021/05/30 11:04:20;;;;;;;;;;;;;;;24.00;23.79;102297.84;5067427;27;99974;-92
2021/05/30 11:06:49;;;;;;;;;;;;;;;22.62;25.20;102284.28;5071045;27;96013;-92
2021/05/30 11:09:19;;;;;;;;;;;;;;;23.18;25.13;102277.16;5079609;27;97046;-91
2021/05/30 11:14:15;;;;;;;;;;;;;;;22.87;25.77;102270.16;5034463;28;96722;-88
2021/05/30 11:16:43;;;;;;;;;;;;;;;23.71;24.38;102276.38;5038149;28;96754;-88
2021/05/30 11:19:10;;;;;;;;;;;;;;;23.19;25.35;102278.88;5207780;22;99282;-88
2021/05/30 11:21:41;;;;;;;;;;;;;;;23.29;25.04;102269.25;5085289;27;100184;-88
2021/05/30 11:24:22;;;;;;;;;;;;;;;23.90;24.51;102276.00;5086936;27;99182;-91
2021/05/30 11:27:19;;;;;;;;;;;;;;;24.21;24.07;102286.50;5081328;27;96792;-90
2021/05/30 11:29:47;;;;;;;;;;;;;;;24.06;23.97;102279.41;5090237;27;96629;-90
2021/05/30 11:44:15;;;;;;;;;;;;;;;23.97;24.00;102271.06;5047083;28;97080;-90
2021/05/30 11:47:05;;;;;;;;;;;;;;;23.21;24.94;102271.56;5042514;28;100022;-93
2021/05/30 11:52:28;;;;;;;;;;;;;;;23.21;25.43;102276.09;5166412;22;99974;-90
2021/05/30 11:54:56;;;;;;;;;;;;;;;23.05;25.40;102262.72;5044426;27;96982;-88
2021/05/30 12:00:19;;;;;;;;;;;;;;;22.42;26.15;102268.47;5065049;27;96185;-92
2021/05/30 12:02:47;;;;;;;;;;;;;;;21.94;26.54;102276.75;5064151;27;96630;-88
2021/05/30 12:08:30;;;;;;;;;;;;;;;22.48;26.28;102268.09;5115404;22;96746;-92
2021/05/30 12:11:13;;;;;;;;;;;;;;;22.73;26.12;102271.97;5061764;27;96766;-91
2021/05/30 12:13:43;;;;;;;;;;;;;;;22.70;26.26;102277.53;5063204;27;96677;-89
2021/05/30 12:16:16;;;;;;;;;;;;;;;23.15;25.48;102269.28;5043199;27;99000;-89
2021/05/30 12:27:20;;;;;;;;;;;;;;;22.95;25.48;102261.59;5073057;22;100018;-92
2021/05/30 12:30:01;;;;;;;;;;;;;;;23.31;24.90;102264.59;5061008;27;99365;-91
2021/05/30 12:45:53;;;;;;;;;;;;;;;24.81;22.64;102245.31;5054910;27;96771;-92
2021/05/30 12:48:19;;;;;;;;;;;;;;;25.24;22.54;102244.94;5066909;27;98850;-92
2021/05/30 12:53:31;;;;;;;;;;;;;;;24.03;24.17;102254.44;5065799;27;96018;-93
2021/05/30 13:38:05;;;;;;;;;;;;;;;26.54;20.26;102207.81;5069284;27;96620;-91
2021/05/30 13:40:41;;;;;;;;;;;;;;;25.76;20.88;102206.75;5064328;27;98726;-90
2021/05/30 13:43:07;;;;;;;;;;;;;;;26.25;20.19;102209.28;5061568;27;99382;-90
2021/05/30 13:45:35;;;;;;;;;;;;;;;25.62;21.49;102223.16;5057774;27;97083;-90
2021/05/30 13:48:01;;;;;;;;;;;;;;;27.06;18.90;102213.59;5056989;27;97011;-88
2021/05/30 13:50:30;;;;;;;;;;;;;;;26.83;19.11;102210.03;5060312;27;100338;-87
2021/05/30 14:01:11;;;;;;;;;;;;;;;29.05;16.96;102199.06;5058295;27;99699;-92
2021/05/30 14:03:38;;;;;;;;;;;;;;;28.42;17.46;102203.81;5057452;27;98935;-90
2021/05/30 14:06:12;;;;;;;;;;;;;;;29.37;17.38;102204.31;5056213;27;96900;-90
2021/05/30 14:08:42;;;;;;;;;;;;;;;30.45;15.54;102192.19;5058589;27;96773;-92
2021/05/30 14:11:09;;;;;;;;;;;;;;;29.55;16.43;102192.56;5051155;27;98745;-89
2021/05/30 14:13:37;;;;;;;;;;;;;;;28.71;17.61;102193.03;5057054;27;105366;-91
2021/05/30 14:16:04;;;;;;;;;;;;;;;32.21;14.93;102192.63;5054964;27;97236;-90
2021/05/30 14:21:19;;;;;;;;;;;;;;;36.82;10.73;102200.72;5045934;27;96944;-87
2021/05/30 14:23:46;;;;;;;;;;;;;;;33.97;12.47;102196.13;5051854;27;99032;-85
2021/05/30 14:26:12;;;;;;;;;;;;;;;36.90;10.48;102189.56;5045531;27;98093;-85
2021/05/30 14:28:38;;;;;;;;;;;;;;;38.57;9.18;102184.44;5051685;27;97337;-85
2021/05/30 14:31:04;;;;;;;;;;;;;;;40.03;8.35;102183.78;5049310;27;100578;-87
2021/05/30 14:33:30;;;;;;;;;;;;;;;39.12;8.76;102177.03;5048629;27;101644;-87
2021/05/30 14:35:57;;;;;;;;;;;;;;;41.48;7.50;102180.50;5044951;27;97369;-86
2021/05/30 14:38:25;;;;;;;;;;;;;;;37.32;9.61;102170.41;5048836;27;98357;-87
2021/05/30 14:40:51;;;;;;;;;;;;;;;37.97;9.39;102168.47;5045753;27;99334;-87
2021/05/30 14:43:18;;;;;;;;;;;;;;;37.55;9.75;102177.63;5048853;27;100892;-86
2021/05/30 14:45:44;;;;;;;;;;;;;;;39.50;8.82;102167.16;5054075;27;97426;-90
2021/05/30 14:48:23;;;;;;;;;;;;;;;38.09;9.47;102178.78;5054992;27;96920;-90
2021/05/30 14:51:17;;;;;;;;;;;;;;;34.24;11.48;102167.50;5559705;22;99057;-92
2021/05/30 14:53:43;;;;;;;;;;;;;;;32.95;11.99;102178.31;5061873;27;99013;-86
2021/05/30 14:56:11;;;;;;;;;;;;;;;33.39;11.52;102174.34;5063532;27;97391;-88
2021/05/30 14:58:37;;;;;;;;;;;;;;;35.64;9.43;102170.25;5058122;27;98160;-88
2021/05/30 15:01:03;;;;;;;;;;;;;;;39.40;7.73;102180.53;5056968;27;100534;-90
2021/05/30 15:06:11;;;;;;;;;;;;;;;30.75;12.70;102172.84;5072107;27;96738;-89
2021/05/30 15:08:46;;;;;;;;;;;;;;;28.76;14.39;102171.75;5103183;22;96703;-89
2021/05/30 15:13:50;;;;;;;;;;;;;;;26.64;18.24;102169.13;5034851;28;97851;-89
2021/05/30 15:16:16;;;;;;;;;;;;;;;25.41;20.10;102160.66;5036459;28;96837;-90
2021/05/30 15:18:53;;;;;;;;;;;;;;;25.73;19.60;102167.22;5035355;27;96833;-90
2021/05/30 15:21:22;;;;;;;;;;;;;;;25.92;19.37;102157.69;5017145;28;97937;-87
2021/05/30 15:23:51;;;;;;;;;;;;;;;26.90;18.49;102154.34;5030062;28;97730;-88
2021/05/30 15:26:21;;;;;;;;;;;;;;;26.87;18.67;102139.13;5030075;27;97149;-88
2021/05/30 15:28:50;;;;;;;;;;;;;;;26.06;19.94;102147.50;5042201;28;97429;-90
2021/05/30 15:31:17;;;;;;;;;;;;;;;26.22;20.04;102149.00;5036795;28;100010;-88
2021/05/30 15:33:45;;;;;;;;;;;;;;;25.80;19.89;102146.81;5032858;27;99418;-90
2021/05/30 15:36:13;;;;;;;;;;;;;;;25.29;20.04;102140.81;5027333;28;97563;-87
2021/05/30 15:38:40;;;;;;;;;;;;;;;24.43;21.32;102137.28;5029665;27;97394;-85
2021/05/30 15:41:08;;;;;;;;;;;;;;;25.04;21.16;102145.47;5031045;28;98061;-88
2021/05/30 15:49:17;;;;;;;;;;;;;;;23.98;21.80;102140.50;5038506;28;96934;-90
2021/05/30 15:54:37;;;;;;;;;;;;;;;24.46;21.29;102131.66;5044251;28;96626;-88
2021/05/30 15:57:07;;;;;;;;;;;;;;;24.36;21.71;102117.06;5038283;27;96344;-89
2021/05/30 16:05:18;;;;;;;;;;;;;;;24.91;21.36;102121.19;5048656;27;98742;-92
2021/05/30 16:10:26;;;;;;;;;;;;;;;24.45;21.97;102123.66;5078455;27;97352;-89
2021/05/30 16:12:53;;;;;;;;;;;;;;;23.88;22.14;102126.78;5073567;27;99849;-90
2021/05/30 16:15:20;;;;;;;;;;;;;;;24.47;21.73;102113.63;5072259;27;100260;-86
2021/05/30 16:17:46;;;;;;;;;;;;;;;24.77;21.65;102122.19;5077199;27;96844;-88
2021/05/30 16:20:14;;;;;;;;;;;;;;;24.46;21.87;102117.28;5071450;27;96932;-89
2021/05/30 16:22:41;;;;;;;;;;;;;;;24.25;22.02;102118.81;5077673;27;96891;-91